Torm Lilly — OUPJ2 — position and weather

sailwx.info

Track history (hours):
 
Tides and Currents Weather Stations Pressure Air Temp Water Temp Dewpoint Dewpoint Depression Visibility Wind Speed Wind Dir Waves Ship Positions

Torm Lilly

Last reported at 2017-Nov-10 16:18 UTC. Time now 2017-Nov-23 22:01 UTC.
Position N 22°40' W 017°15'.
Warning: this ship's position is 13 days out of date.

Length 183 m; draft 12.1 m.

Type: Tanker. MMSI: 220634000.

Date/timePositionNaut miles runAvg speedWind from/ knotsBaromVisibWave heightAir tempDewpointWater temp
2017-Nov-10 16:18N 22°40' W 017°15'5315.2
2017-Nov-10 12:49N 23°29' W 016°55'2315.4
2017-Nov-10 11:18N 23°51' W 016°46'515.1
2017-Nov-10 10:59N 23°56' W 016°44'23812.3
2017-Nov-09 15:38N 27°39' W 015°12'411.6
2017-Nov-09 15:18N 27°43' W 015°11'311.4
2017-Nov-09 15:00N 27°46' W 015°09'611.2
2017-Nov-09 14:30N 27°51' W 015°07'611.4
2017-Nov-09 14:01N 27°57' W 015°05'611.3
2017-Nov-09 13:30N 28°02' W 015°02'611.7
2017-Nov-09 13:01N 28°07' W 015°00'611.8
2017-Nov-09 12:31N 28°13' W 014°58'611.8
2017-Nov-09 12:01N 28°18' W 014°56'611.7
2017-Nov-09 11:30N 28°24' W 014°54'611.4
2017-Nov-09 11:01N 28°29' W 014°52'611.1
2017-Nov-09 10:30N 28°35' W 014°50'611.1
2017-Nov-09 09:55N 28°41' W 014°49'12511.3
2017-Nov-08 22:52N 30°42' W 014°11'411.3
2017-Nov-08 22:30N 30°46' W 014°10'611.1
2017-Nov-08 22:00N 30°51' W 014°09'510.9
2017-Nov-08 21:31N 30°56' W 014°07'510.8
2017-Nov-08 21:00N 31°02' W 014°05'1510.9
2017-Nov-08 19:40N 31°16' W 014°01'311.2
2017-Nov-08 19:24N 31°19' W 014°00'511.0
2017-Nov-08 18:57N 31°23' W 013°59'  
2017-Nov-04 07:39N 49°43' W 003°37'410.4
2017-Nov-04 07:13N 49°45' W 003°31'2 9.9
2017-Nov-04 06:59N 49°47' W 003°28'5 9.3
2017-Nov-04 06:30N 49°49' W 003°21'4 9.2
2017-Nov-04 06:01N 49°51' W 003°15'5 9.2
2017-Nov-04 05:30N 49°53' W 003°09'6 9.6
2017-Nov-04 04:51N 49°56' W 003°01'310.2
2017-Nov-04 04:30N 49°58' W 002°56'510.7
2017-Nov-04 04:01N 49°59' W 002°48'611.6
2017-Nov-04 03:31N 50°01' W 002°39'612.6
2017-Nov-04 03:01N 50°03' W 002°30'1514.3
2017-Nov-04 01:58N 50°07' W 002°08'715.4
2017-Nov-04 01:30N 50°08' W 001°57'815.6
2017-Nov-04 01:00N 50°11' W 001°45'815.4
2017-Nov-04 00:30N 50°13' W 001°33'714.7
2017-Nov-04 00:00N 50°14' W 001°22'713.8
2017-Nov-03 23:29N 50°16' W 001°11'3210.4
2017-Nov-03 20:25N 50°25' W 000°23'4 8.9
2017-Nov-03 20:01N 50°25' W 000°17'5 9.2
2017-Nov-03 19:30N 50°27' W 000°10'5 9.4
2017-Nov-03 19:00N 50°28' W 000°03'5 9.9
2017-Nov-03 18:29N 50°29' E 000°04'510.6
2017-Nov-03 17:59N 50°31' E 000°13'511.3
2017-Nov-03 17:31N 50°32' E 000°21'612.1
2017-Nov-03 17:01N 50°34' E 000°30'612.4
2017-Nov-03 16:30N 50°36' E 000°39'612.7
2017-Nov-03 16:00N 50°40' E 000°47'612.7
2017-Nov-03 15:31N 50°43' E 000°55'1312.1
2017-Nov-03 14:27N 50°51' E 001°12'511.3
2017-Nov-03 13:58N 50°55' E 001°18'510.4
2017-Nov-03 13:29N 50°59' E 001°23'5 9.6
2017-Nov-03 13:00N 51°02' E 001°28'4 8.8
2017-Nov-03 12:30N 51°05' E 001°33'4 8.2
2017-Nov-03 12:01N 51°08' E 001°37'4 8.5
2017-Nov-03 11:31N 51°11' E 001°42'5 9.3
2017-Nov-03 11:01N 51°15' E 001°46'510.3
2017-Nov-03 10:30N 51°19' E 001°50'611.2
2017-Nov-03 10:01N 51°24' E 001°55'612.0
2017-Nov-03 09:30N 51°29' E 002°01'612.9
2017-Nov-03 09:01N 51°34' E 002°07'7012.6
2017-Nov-03 03:30N 52°36' E 002°59'423 8.6
2017-Nov-01 01:59N 57°36' E 011°41'0 0.0
2017-Nov-01 01:29N 57°36' E 011°41'0 0.0
2017-Nov-01 00:59N 57°36' E 011°41'0 0.0
2017-Nov-01 00:29N 57°36' E 011°41'0 0.0
2017-Oct-31 23:59N 57°36' E 011°41'0 0.0
2017-Oct-31 23:29N 57°36' E 011°41'0 0.0
2017-Oct-31 22:59N 57°36' E 011°41'0 0.0
2017-Oct-31 22:29N 57°36' E 011°41'0 0.0
2017-Oct-31 21:59N 57°36' E 011°41'0 0.0
2017-Oct-31 21:29N 57°36' E 011°41'0 0.7
2017-Oct-31 21:01N 57°35' E 011°42'4 7.8
2017-Oct-31 20:30N 57°33' E 011°36'612.4
2017-Oct-31 20:01N 57°27' E 011°37'612.7
2017-Oct-31 19:30N 57°20' E 011°37'612.2
2017-Oct-31 18:59N 57°14' E 011°38'611.9
2017-Oct-31 18:30N 57°08' E 011°40'612.0
2017-Oct-31 17:59N 57°02' E 011°44'  
Track history (hours):
 
Tides and Currents Weather Stations Pressure Air Temp Water Temp Dewpoint Dewpoint Depression Visibility Wind Speed Wind Dir Waves Ship Positions

Torm Lilly

Last reported at 2017-Nov-10 16:18 UTC. Time now 2017-Nov-23 22:01 UTC.
Position N 22°40' W 017°15'.
Warning: this ship's position is 13 days out of date.

Length 183 m; draft 12.1 m.

Type: Tanker. MMSI: 220634000.

Date/timePositionNaut miles runAvg speedWind from/ knotsBaromVisibWave heightAir tempDewpointWater temp
2017-Nov-10 16:18N 22°40' W 017°15'5315.2
2017-Nov-10 12:49N 23°29' W 016°55'2315.4
2017-Nov-10 11:18N 23°51' W 016°46'515.1
2017-Nov-10 10:59N 23°56' W 016°44'23812.3
2017-Nov-09 15:38N 27°39' W 015°12'411.6
2017-Nov-09 15:18N 27°43' W 015°11'311.4
2017-Nov-09 15:00N 27°46' W 015°09'611.2
2017-Nov-09 14:30N 27°51' W 015°07'611.4
2017-Nov-09 14:01N 27°57' W 015°05'611.3
2017-Nov-09 13:30N 28°02' W 015°02'611.7
2017-Nov-09 13:01N 28°07' W 015°00'611.8
2017-Nov-09 12:31N 28°13' W 014°58'611.8
2017-Nov-09 12:01N 28°18' W 014°56'611.7
2017-Nov-09 11:30N 28°24' W 014°54'611.4
2017-Nov-09 11:01N 28°29' W 014°52'611.1
2017-Nov-09 10:30N 28°35' W 014°50'611.1
2017-Nov-09 09:55N 28°41' W 014°49'12511.3
2017-Nov-08 22:52N 30°42' W 014°11'411.3
2017-Nov-08 22:30N 30°46' W 014°10'611.1
2017-Nov-08 22:00N 30°51' W 014°09'510.9
2017-Nov-08 21:31N 30°56' W 014°07'510.8
2017-Nov-08 21:00N 31°02' W 014°05'1510.9
2017-Nov-08 19:40N 31°16' W 014°01'311.2
2017-Nov-08 19:24N 31°19' W 014°00'511.0
2017-Nov-08 18:57N 31°23' W 013°59'  
2017-Nov-04 07:39N 49°43' W 003°37'410.4
2017-Nov-04 07:13N 49°45' W 003°31'2 9.9
2017-Nov-04 06:59N 49°47' W 003°28'5 9.3
2017-Nov-04 06:30N 49°49' W 003°21'4 9.2
2017-Nov-04 06:01N 49°51' W 003°15'5 9.2
2017-Nov-04 05:30N 49°53' W 003°09'6 9.6
2017-Nov-04 04:51N 49°56' W 003°01'310.2
2017-Nov-04 04:30N 49°58' W 002°56'510.7
2017-Nov-04 04:01N 49°59' W 002°48'611.6
2017-Nov-04 03:31N 50°01' W 002°39'612.6
2017-Nov-04 03:01N 50°03' W 002°30'1514.3
2017-Nov-04 01:58N 50°07' W 002°08'715.4
2017-Nov-04 01:30N 50°08' W 001°57'815.6
2017-Nov-04 01:00N 50°11' W 001°45'815.4
2017-Nov-04 00:30N 50°13' W 001°33'714.7
2017-Nov-04 00:00N 50°14' W 001°22'713.8
2017-Nov-03 23:29N 50°16' W 001°11'3210.4
2017-Nov-03 20:25N 50°25' W 000°23'4 8.9
2017-Nov-03 20:01N 50°25' W 000°17'5 9.2
2017-Nov-03 19:30N 50°27' W 000°10'5 9.4
2017-Nov-03 19:00N 50°28' W 000°03'5 9.9
2017-Nov-03 18:29N 50°29' E 000°04'510.6
2017-Nov-03 17:59N 50°31' E 000°13'511.3
2017-Nov-03 17:31N 50°32' E 000°21'612.1
2017-Nov-03 17:01N 50°34' E 000°30'612.4
2017-Nov-03 16:30N 50°36' E 000°39'612.7
2017-Nov-03 16:00N 50°40' E 000°47'612.7
2017-Nov-03 15:31N 50°43' E 000°55'1312.1
2017-Nov-03 14:27N 50°51' E 001°12'511.3
2017-Nov-03 13:58N 50°55' E 001°18'510.4
2017-Nov-03 13:29N 50°59' E 001°23'5 9.6
2017-Nov-03 13:00N 51°02' E 001°28'4 8.8
2017-Nov-03 12:30N 51°05' E 001°33'4 8.2
2017-Nov-03 12:01N 51°08' E 001°37'4 8.5
2017-Nov-03 11:31N 51°11' E 001°42'5 9.3
2017-Nov-03 11:01N 51°15' E 001°46'510.3
2017-Nov-03 10:30N 51°19' E 001°50'611.2
2017-Nov-03 10:01N 51°24' E 001°55'612.0
2017-Nov-03 09:30N 51°29' E 002°01'612.9
2017-Nov-03 09:01N 51°34' E 002°07'7012.6
2017-Nov-03 03:30N 52°36' E 002°59'423 8.6
2017-Nov-01 01:59N 57°36' E 011°41'0 0.0
2017-Nov-01 01:29N 57°36' E 011°41'0 0.0
2017-Nov-01 00:59N 57°36' E 011°41'0 0.0
2017-Nov-01 00:29N 57°36' E 011°41'0 0.0
2017-Oct-31 23:59N 57°36' E 011°41'0 0.0
2017-Oct-31 23:29N 57°36' E 011°41'0 0.0
2017-Oct-31 22:59N 57°36' E 011°41'0 0.0
2017-Oct-31 22:29N 57°36' E 011°41'0 0.0
2017-Oct-31 21:59N 57°36' E 011°41'0 0.0
2017-Oct-31 21:29N 57°36' E 011°41'0 0.7
2017-Oct-31 21:01N 57°35' E 011°42'4 7.8
2017-Oct-31 20:30N 57°33' E 011°36'612.4
2017-Oct-31 20:01N 57°27' E 011°37'612.7
2017-Oct-31 19:30N 57°20' E 011°37'612.2
2017-Oct-31 18:59N 57°14' E 011°38'611.9
2017-Oct-31 18:30N 57°08' E 011°40'612.0
2017-Oct-31 17:59N 57°02' E 011°44'  

Dump ship's entire track history